Time;durP1;ratioP1;P1;durP2;ratioP2;P2;SDS_P1;SDS_P2;PMS_P1;PMS_P2;Temp;Humidity;BMP_temperature;BMP_pressure;BME280_temperature;BME280_humidity;BME280_pressure;Samples;Min_cycle;Max_cycle;Signal;HPM_P1;HPM_P2
2022/11/21 14:40:50;;;;;;;;;;;1.80;99.90;;;;;;5072341;28;19925;-95
2022/11/21 14:43:35;;;;;;;;;;;1.80;99.90;;;;;;5052285;28;19913;-95
2022/11/21 15:29:00;;;;;;;;;;;2.30;99.90;;;;;;5072122;28;19921;-94
2022/11/21 15:31:26;;;;;;;;;;;2.30;99.90;;;;;;5042689;28;20320;-92
2022/11/21 15:33:59;;;;;;;;;;;2.40;99.90;;;;;;5039434;28;19950;-93
2022/11/21 15:36:24;;;;;;;;;;;2.50;99.90;;;;;;5048121;28;19959;-92
2022/11/21 15:39:02;;;;;;;;;;;2.70;99.90;;;;;;5052992;28;19909;-94
2022/11/21 15:41:30;;;;;;;;;;;2.80;99.90;;;;;;5036230;28;19909;-93
2022/11/21 15:43:59;;;;;;;;;;;2.90;99.90;;;;;;5036565;28;19913;-94
2022/11/21 15:46:26;;;;;;;;;;;3.00;99.90;;;;;;5033307;28;20272;-94
2022/11/21 15:48:55;;;;;;;;;;;3.10;99.90;;;;;;5044075;28;19921;-95
2022/11/21 15:51:25;;;;;;;;;;;3.10;99.90;;;;;;5036607;28;19913;-94
2022/11/21 15:53:51;;;;;;;;;;;3.20;99.90;;;;;;5057274;28;19909;-95
2022/11/21 15:56:17;;;;;;;;;;;3.30;99.90;;;;;;5054592;28;19915;-94
2022/11/21 15:58:44;;;;;;;;;;;3.40;99.90;;;;;;5040266;28;19916;-92
2022/11/21 16:01:28;;;;;;;;;;;3.40;99.90;;;;;;5048269;28;19920;-91
2022/11/21 16:03:58;;;;;;;;;;;3.50;99.90;;;;;;5038992;28;20343;-92
2022/11/21 16:06:24;;;;;;;;;;;3.50;99.90;;;;;;5056365;28;19913;-92
2022/11/21 16:08:49;;;;;;;;;;;3.60;99.90;;;;;;5052639;28;19925;-92
2022/11/21 16:11:24;;;;;;;;;;;3.70;99.90;;;;;;5044017;28;19948;-91
2022/11/21 16:13:57;;;;;;;;;;;3.70;99.90;;;;;;5057576;28;19954;-92
2022/11/21 16:16:24;;;;;;;;;;;3.70;99.90;;;;;;5058264;28;19963;-92
2022/11/21 16:18:50;;;;;;;;;;;3.80;99.90;;;;;;5062560;28;19912;-93
2022/11/21 16:21:15;;;;;;;;;;;3.80;99.90;;;;;;5032627;28;20357;-92
2022/11/21 16:23:41;;;;;;;;;;;3.90;99.90;;;;;;5040229;28;19939;-92
2022/11/21 16:26:07;;;;;;;;;;;3.90;99.90;;;;;;5038896;28;19913;-92
2022/11/21 16:28:33;;;;;;;;;;;4.00;99.90;;;;;;5033036;28;19933;-93
2022/11/21 16:31:00;;;;;;;;;;;4.00;99.90;;;;;;5032408;28;19952;-92
2022/11/21 16:33:26;;;;;;;;;;;4.10;99.90;;;;;;5038592;28;19913;-95
2022/11/21 16:35:55;;;;;;;;;;;4.10;99.90;;;;;;5039455;28;20251;-96
2022/11/21 16:38:27;;;;;;;;;;;4.10;99.90;;;;;;5029719;28;20003;-91
2022/11/21 16:41:00;;;;;;;;;;;4.10;99.90;;;;;;5048117;28;19913;-91
2022/11/21 16:43:27;;;;;;;;;;;4.20;99.90;;;;;;5046347;28;19912;-90
2022/11/21 16:45:53;;;;;;;;;;;4.20;99.90;;;;;;5018247;28;19936;-91
2022/11/21 16:48:19;;;;;;;;;;;4.20;99.90;;;;;;5018930;28;20368;-92
2022/11/21 16:50:45;;;;;;;;;;;4.20;99.90;;;;;;5017847;28;19920;-90
2022/11/21 16:53:10;;;;;;;;;;;4.30;99.90;;;;;;5032657;28;19913;-91
2022/11/21 16:55:36;;;;;;;;;;;4.30;99.90;;;;;;5021928;28;19913;-93
2022/11/21 16:58:02;;;;;;;;;;;4.30;99.90;;;;;;5023619;28;19917;-95
2022/11/21 17:00:28;;;;;;;;;;;4.40;99.90;;;;;;5033279;28;19974;-96
2022/11/21 17:02:54;;;;;;;;;;;4.40;99.90;;;;;;5014880;28;19913;-95
2022/11/21 17:05:20;;;;;;;;;;;4.40;99.90;;;;;;5026387;28;19995;-93
2022/11/21 17:07:45;;;;;;;;;;;4.50;99.90;;;;;;5017884;28;19917;-92
2022/11/21 17:10:11;;;;;;;;;;;4.50;99.90;;;;;;5021117;28;19917;-95
2022/11/21 17:12:37;;;;;;;;;;;4.50;99.90;;;;;;5021493;28;20349;-95
2022/11/21 17:15:04;;;;;;;;;;;4.60;99.90;;;;;;5020241;28;19913;-92
2022/11/21 17:17:29;;;;;;;;;;;4.60;99.90;;;;;;5032826;28;20008;-90
2022/11/21 17:19:55;;;;;;;;;;;4.60;99.90;;;;;;5028553;28;20051;-91
2022/11/21 17:22:21;;;;;;;;;;;4.70;99.90;;;;;;5034464;28;20281;-89
2022/11/21 17:24:47;;;;;;;;;;;4.70;99.90;;;;;;5016702;28;19913;-90
2022/11/21 17:27:12;;;;;;;;;;;4.70;99.90;;;;;;5016194;28;19932;-90
2022/11/21 17:29:38;;;;;;;;;;;4.80;99.90;;;;;;5039563;28;19914;-94
2022/11/21 17:32:07;;;;;;;;;;;4.80;99.90;;;;;;5016292;28;19963;-95
2022/11/21 17:34:33;;;;;;;;;;;4.80;99.90;;;;;;5034778;28;19963;-94
2022/11/21 17:36:58;;;;;;;;;;;4.90;99.90;;;;;;5015126;28;19909;-95
2022/11/21 17:39:24;;;;;;;;;;;4.90;99.90;;;;;;5031211;28;19943;-94
2022/11/21 17:41:52;;;;;;;;;;;5.00;99.90;;;;;;5026730;28;19909;-94
2022/11/21 17:44:17;;;;;;;;;;;5.00;99.90;;;;;;5017387;28;19920;-94
2022/11/21 17:46:43;;;;;;;;;;;5.00;99.90;;;;;;5025076;28;19909;-94
2022/11/21 17:49:10;;;;;;;;;;;5.10;99.90;;;;;;5027065;28;19921;-96
2022/11/21 17:51:36;;;;;;;;;;;5.10;99.90;;;;;;5035066;28;19974;-95
2022/11/21 17:54:02;;;;;;;;;;;5.20;99.90;;;;;;5017957;28;20258;-94
2022/11/21 17:56:29;;;;;;;;;;;5.20;99.90;;;;;;5016317;28;19958;-95
2022/11/21 17:58:55;;;;;;;;;;;5.30;99.90;;;;;;5026641;28;19914;-96
2022/11/21 18:01:20;;;;;;;;;;;5.30;99.90;;;;;;5020290;28;20364;-93
2022/11/21 18:03:47;;;;;;;;;;;5.40;99.90;;;;;;5031169;28;20427;-93
2022/11/21 18:06:14;;;;;;;;;;;5.40;99.90;;;;;;5019638;28;19919;-92
2022/11/21 18:08:42;;;;;;;;;;;5.50;99.90;;;;;;5014499;28;19913;-95
2022/11/21 18:11:08;;;;;;;;;;;5.50;99.90;;;;;;5030587;28;19922;-96
2022/11/21 18:13:42;;;;;;;;;;;5.50;99.90;;;;;;5053178;28;19920;-95
2022/11/21 18:16:09;;;;;;;;;;;5.60;99.90;;;;;;5045582;28;19913;-96
2022/11/21 18:18:35;;;;;;;;;;;5.60;99.90;;;;;;5026490;28;20284;-96
2022/11/21 18:21:06;;;;;;;;;;;5.60;99.90;;;;;;5020719;28;19910;-96
2022/11/21 18:23:32;;;;;;;;;;;5.70;99.90;;;;;;5053718;23;19926;-95
2022/11/21 18:26:16;;;;;;;;;;;5.70;99.90;;;;;;5009193;28;19945;-96
2022/11/21 18:28:42;;;;;;;;;;;5.70;99.90;;;;;;5082313;22;19933;-95
2022/11/21 18:31:17;;;;;;;;;;;5.80;99.90;;;;;;5013782;28;19921;-94
2022/11/21 18:33:43;;;;;;;;;;;5.80;99.90;;;;;;5003718;28;19920;-94
2022/11/21 18:36:09;;;;;;;;;;;5.80;99.90;;;;;;5015257;28;20001;-90
2022/11/21 18:38:36;;;;;;;;;;;5.90;99.90;;;;;;5009591;28;19917;-90
2022/11/21 18:41:06;;;;;;;;;;;5.90;99.90;;;;;;4994816;28;20012;-91
2022/11/21 18:43:33;;;;;;;;;;;5.90;99.90;;;;;;5020170;28;20376;-96
2022/11/21 18:46:02;;;;;;;;;;;5.90;99.90;;;;;;5006135;28;20358;-91
2022/11/21 18:48:29;;;;;;;;;;;6.00;99.90;;;;;;5028319;28;19914;-91
2022/11/21 18:50:54;;;;;;;;;;;6.00;99.90;;;;;;5022481;28;19920;-95
2022/11/21 18:53:20;;;;;;;;;;;6.00;99.90;;;;;;4996336;28;19945;-95
2022/11/21 18:55:46;;;;;;;;;;;6.00;99.90;;;;;;5013277;28;19965;-91
2022/11/21 18:58:11;;;;;;;;;;;6.10;99.90;;;;;;5007830;28;19917;-96
2022/11/21 19:00:37;;;;;;;;;;;6.10;99.90;;;;;;5011335;28;19914;-96
2022/11/21 19:03:03;;;;;;;;;;;6.10;99.90;;;;;;5003057;28;20581;-94
2022/11/21 19:05:28;;;;;;;;;;;6.10;99.90;;;;;;4992965;28;19920;-92
2022/11/21 19:07:54;;;;;;;;;;;6.10;99.90;;;;;;5022178;28;19904;-94
2022/11/21 19:10:20;;;;;;;;;;;6.20;99.90;;;;;;4998443;28;19914;-95
2022/11/21 19:12:45;;;;;;;;;;;6.20;99.90;;;;;;5028942;28;20231;-94
2022/11/21 19:15:12;;;;;;;;;;;6.20;99.90;;;;;;5001392;28;19920;-96
2022/11/21 19:17:37;;;;;;;;;;;6.20;99.90;;;;;;5013637;28;19924;-93
2022/11/21 19:20:03;;;;;;;;;;;6.20;99.90;;;;;;5007281;28;19913;-93
2022/11/21 19:22:29;;;;;;;;;;;6.30;99.90;;;;;;5013179;28;19914;-92
2022/11/21 19:24:55;;;;;;;;;;;6.30;99.90;;;;;;5023325;28;20009;-90
2022/11/21 19:27:23;;;;;;;;;;;6.30;99.90;;;;;;5021693;28;20007;-91
2022/11/21 20:14:19;;;;;;;;;;;5.30;99.90;;;;;;5058300;28;19921;-96
2022/11/21 20:16:47;;;;;;;;;;;5.20;99.90;;;;;;5030867;28;20369;-96
2022/11/21 20:19:14;;;;;;;;;;;5.30;99.90;;;;;;5036893;28;19909;-94
2022/11/21 20:21:40;;;;;;;;;;;5.30;99.90;;;;;;5044718;28;19962;-95
2022/11/21 20:24:06;;;;;;;;;;;5.40;99.90;;;;;;5056049;28;19909;-96
2022/11/21 20:26:32;;;;;;;;;;;5.50;99.90;;;;;;5033232;28;19913;-96
2022/11/21 20:28:57;;;;;;;;;;;5.60;99.90;;;;;;5019925;28;19971;-96
2022/11/21 20:31:25;;;;;;;;;;;5.70;99.90;;;;;;5015904;28;19909;-95
2022/11/21 20:33:52;;;;;;;;;;;5.70;99.90;;;;;;5034954;28;19924;-96
2022/11/21 20:36:19;;;;;;;;;;;5.80;99.90;;;;;;5035382;28;19909;-96
2022/11/21 20:38:52;;;;;;;;;;;5.80;99.90;;;;;;5033092;28;19913;-96
